Time;durP1;ratioP1;P1;durP2;ratioP2;P2;SDS_P1;SDS_P2;PMS_P1;PMS_P2;Temp;Humidity;BMP_temperature;BMP_pressure;BME280_temperature;BME280_humidity;BME280_pressure;Samples;Min_cycle;Max_cycle;Signal;HPM_P1;HPM_P2
2022/04/20 00:00:13;;;;;;;4.35;2.92;;;6.90;62.50;;;6.84;63.28;101197.81;4798263;24;20252;-68
2022/04/20 00:02:42;;;;;;;5.03;4.28;;;6.90;65.00;;;6.92;63.04;101199.66;4794173;29;20228;-68
2022/04/20 00:05:12;;;;;;;5.38;3.67;;;6.90;65.00;;;6.92;63.28;101205.84;4788182;29;20194;-69
2022/04/20 00:07:41;;;;;;;7.70;5.38;;;6.90;66.00;;;6.80;63.76;101206.38;4788175;29;20201;-69
2022/04/20 00:10:10;;;;;;;8.48;4.40;;;6.90;68.40;;;6.77;64.09;101206.75;4797913;29;20292;-68
2022/04/20 00:12:38;;;;;;;6.60;3.97;;;6.80;71.30;;;6.83;63.89;101214.09;4805788;29;20194;-68
2022/04/20 00:15:09;;;;;;;4.63;3.78;;;6.80;72.60;;;6.98;63.30;101210.56;4805731;29;20204;-68
2022/04/20 00:17:37;;;;;;;8.02;4.05;;;6.90;70.20;;;6.87;63.76;101212.78;4805850;29;20297;-69
2022/04/20 00:20:09;;;;;;;5.18;4.68;;;6.90;69.60;;;6.82;63.89;101205.22;4806872;29;20213;-69
2022/04/20 00:22:39;;;;;;;4.97;4.47;;;6.80;73.40;;;6.91;63.79;101200.66;4806175;29;20210;-69
2022/04/20 00:25:09;;;;;;;4.85;4.10;;;6.80;77.40;;;6.79;64.63;101204.69;4805500;29;20807;-69
2022/04/20 00:27:39;;;;;;;9.07;5.15;;;6.80;80.70;;;6.86;64.63;101211.09;4805860;29;20198;-69
2022/04/20 00:30:10;;;;;;;5.15;3.50;;;6.80;82.60;;;6.82;64.80;101201.69;4805765;29;20217;-68
2022/04/20 00:32:40;;;;;;;6.57;4.13;;;6.80;84.40;;;6.89;64.41;101205.38;4805762;29;20202;-68
2022/04/20 00:35:10;;;;;;;7.53;4.63;;;6.80;85.90;;;6.64;65.29;101209.06;4805429;29;20193;-68
2022/04/20 00:37:42;;;;;;;7.53;4.18;;;6.70;87.40;;;6.69;65.48;101204.03;4805536;29;20217;-68
2022/04/20 00:40:13;;;;;;;7.15;4.47;;;6.70;90.40;;;6.73;65.25;101208.09;4803925;29;20225;-68
2022/04/20 00:42:43;;;;;;;9.80;4.25;;;6.70;90.30;;;6.75;65.25;101214.97;4803980;29;20293;-67
2022/04/20 00:45:14;;;;;;;7.07;4.00;;;6.80;90.30;;;6.75;65.10;101211.44;4805288;29;20209;-68
2022/04/20 00:47:43;;;;;;;6.40;4.63;;;6.80;90.10;;;6.67;65.40;101206.06;4805228;29;20246;-68
2022/04/20 00:50:16;;;;;;;8.73;5.72;;;6.70;90.70;;;6.64;65.32;101211.78;4803880;29;20228;-68
2022/04/20 00:52:47;;;;;;;4.82;4.32;;;6.70;91.60;;;6.68;65.66;101207.75;4803924;29;20202;-68
2022/04/20 00:55:32;;;;;;;6.85;4.38;;;6.60;92.00;;;6.60;65.59;101215.81;4804029;29;20279;-68
2022/04/20 00:58:05;;;;;;;4.68;4.03;;;6.60;91.80;;;6.62;65.70;101208.44;4803853;29;20274;-69
2022/04/20 01:00:36;;;;;;;5.13;3.92;;;6.60;92.60;;;6.76;65.10;101208.59;4803781;29;20719;-68
2022/04/20 01:03:07;;;;;;;6.07;3.92;;;6.70;91.40;;;6.57;65.38;101216.16;4803722;29;20292;-68
2022/04/20 01:05:56;;;;;;;5.10;4.10;;;6.60;91.70;;;6.53;65.60;101215.66;4804983;29;20706;-68
2022/04/20 01:08:55;;;;;;;6.28;3.70;;;6.60;92.00;;;6.50;66.12;101216.81;4803953;29;20254;-69
2022/04/20 01:11:42;;;;;;;8.15;4.72;;;6.50;93.90;;;6.51;66.05;101214.97;4805722;29;20266;-68
2022/04/20 01:14:30;;;;;;;9.50;3.97;;;6.50;95.00;;;6.48;66.10;101212.63;4803713;29;20201;-69
2022/04/20 01:17:37;;;;;;;6.40;3.95;;;6.50;95.70;;;6.61;66.15;101201.38;4804631;29;20227;-69
2022/04/20 01:20:32;;;;;;;4.93;4.28;;;6.50;96.10;;;6.59;66.09;101203.38;4803362;29;20313;-68
2022/04/20 01:23:18;;;;;;;8.45;4.60;;;6.50;95.70;;;6.58;66.63;101204.41;4804473;29;20636;-68
2022/04/20 01:26:08;;;;;;;5.72;4.40;;;6.60;96.00;;;6.51;66.84;101202.38;4803398;29;20189;-68
2022/04/20 01:29:04;;;;;;;8.57;4.45;;;6.50;96.20;;;6.53;66.66;101199.53;4803769;29;20282;-69
2022/04/20 01:31:38;;;;;;;6.82;4.63;;;6.50;97.40;;;6.62;66.56;101198.50;4803163;29;20559;-69
2022/04/20 01:34:14;;;;;;;7.88;4.72;;;6.60;97.90;;;6.56;66.74;101204.56;4803240;29;20209;-68
2022/04/20 01:36:45;;;;;;;4.75;4.30;;;6.60;98.10;;;6.54;66.93;101195.81;4804705;29;20193;-66
2022/04/20 01:39:14;;;;;;;6.28;4.40;;;6.50;98.40;;;6.58;66.95;101202.56;4803199;29;20239;-69
2022/04/20 01:41:44;;;;;;;6.13;4.30;;;6.50;98.60;;;6.43;67.74;101199.69;4803203;29;20209;-68
2022/04/20 01:44:13;;;;;;;5.57;4.00;;;6.50;99.40;;;6.59;66.90;101198.84;4804764;29;20192;-67
2022/04/20 01:46:47;;;;;;;5.65;3.95;;;6.50;99.40;;;6.51;67.66;101197.00;4803445;29;20201;-70
2022/04/20 01:49:42;;;;;;;9.05;5.43;;;6.50;99.90;;;6.51;67.76;101198.84;4810510;29;20221;-68
2022/04/20 01:52:34;;;;;;;9.55;4.50;;;6.50;99.90;;;6.61;67.52;101195.97;4803245;29;20235;-68
2022/04/20 01:55:25;;;;;;;8.23;4.65;;;6.50;99.90;;;6.48;67.57;101200.03;4803685;29;20301;-69
2022/04/20 01:58:02;;;;;;;6.75;5.05;;;6.50;99.90;;;6.52;67.97;101204.06;4804908;29;20220;-68
2022/04/20 02:00:50;;;;;;;6.05;4.53;;;6.50;99.90;;;6.53;67.84;101194.16;4804772;29;20236;-68
2022/04/20 02:03:33;;;;;;;5.38;3.97;;;6.50;99.90;;;6.48;68.49;101186.59;4803358;29;20205;-68
2022/04/20 02:06:11;;;;;;;8.90;5.22;;;6.50;99.90;;;6.44;68.29;101195.97;4803516;29;20216;-68
2022/04/20 02:09:05;;;;;;;8.57;5.05;;;6.50;99.90;;;6.38;68.88;101185.91;4805702;29;20292;-69
2022/04/20 02:11:50;;;;;;;5.00;4.13;;;6.40;99.90;;;6.34;69.06;101189.94;4807116;29;20204;-68
2022/04/20 02:14:29;;;;;;;5.63;4.45;;;6.40;99.90;;;6.41;69.18;101195.47;4807664;29;20236;-68
2022/04/20 02:17:08;;;;;;;7.90;4.47;;;6.40;99.90;;;6.34;69.39;101194.50;4807936;29;20251;-68
2022/04/20 02:19:42;;;;;;;9.07;4.40;;;6.40;99.90;;;6.34;69.12;101189.94;4807962;29;20232;-68
2022/04/20 02:22:15;;;;;;;6.18;4.10;;;6.40;99.90;;;6.38;69.05;101187.75;4807793;29;20209;-69
2022/04/20 02:24:46;;;;;;;7.57;5.35;;;6.40;99.90;;;6.34;69.27;101187.25;4807243;29;20209;-69
2022/04/20 02:27:14;;;;;;;8.38;6.38;;;6.40;99.90;;;6.41;69.19;101185.56;4809885;29;20185;-68
2022/04/20 02:29:43;;;;;;;6.45;4.72;;;6.40;99.90;;;6.36;69.24;101179.00;4809679;29;20296;-68
2022/04/20 02:32:12;;;;;;;6.53;3.92;;;6.30;99.90;;;6.31;69.57;101179.53;4808531;29;20216;-68
2022/04/20 02:34:41;;;;;;;7.53;4.07;;;6.40;99.90;;;6.32;69.64;101175.84;4808792;29;20232;-68
2022/04/20 02:37:10;;;;;;;6.68;4.30;;;6.30;99.90;;;6.28;70.25;101179.03;4810082;29;20186;-68
2022/04/20 02:39:40;;;;;;;7.68;5.35;;;6.30;99.90;;;6.29;70.18;101184.25;4808592;29;20662;-69
2022/04/20 02:42:13;;;;;;;6.55;4.57;;;6.30;99.90;;;6.27;70.14;101180.88;4808369;29;20205;-68
2022/04/20 02:44:42;;;;;;;5.32;4.03;;;6.30;99.90;;;6.27;70.55;101183.56;4809858;29;20615;-68
2022/04/20 02:47:11;;;;;;;7.28;4.90;;;6.30;99.90;;;6.35;70.10;101190.78;4810217;29;20205;-68
2022/04/20 02:49:40;;;;;;;5.00;4.45;;;6.30;99.90;;;6.38;70.16;101185.91;4809766;29;20238;-68
2022/04/20 02:52:09;;;;;;;7.53;5.10;;;6.40;99.90;;;6.44;70.29;101179.00;4810316;29;20196;-68
2022/04/20 02:54:38;;;;;;;10.82;5.05;;;6.40;99.90;;;6.44;70.19;101179.84;4809473;29;20212;-69
2022/04/20 02:57:08;;;;;;;7.20;4.95;;;6.40;99.90;;;6.57;69.79;101183.88;4807667;29;20258;-69
2022/04/20 02:59:38;;;;;;;5.38;4.20;;;6.50;99.90;;;6.54;69.92;101196.66;4806878;29;20257;-69
2022/04/20 03:02:07;;;;;;;6.78;4.80;;;6.50;99.90;;;6.38;70.70;101191.28;4807218;29;20213;-69
2022/04/20 03:04:36;;;;;;;4.95;4.45;;;6.50;99.90;;;6.39;70.66;101192.94;4806779;29;20227;-68
2022/04/20 03:07:06;;;;;;;7.90;5.18;;;6.40;99.90;;;6.36;70.59;101197.84;4806333;29;20194;-68
2022/04/20 03:09:51;;;;;;;7.32;4.57;;;6.40;99.90;;;6.52;70.67;101181.72;4805964;29;20311;-68
2022/04/20 03:12:21;;;;;;;6.35;4.88;;;6.40;99.90;;;6.59;70.32;101187.22;4806349;29;20201;-68
2022/04/20 03:14:55;;;;;;;12.45;5.95;;;6.50;99.90;;;6.52;70.75;101185.25;4806309;29;20683;-68
2022/04/20 03:17:25;;;;;;;8.18;4.95;;;6.50;99.90;;;6.68;70.25;101178.19;4806336;29;20197;-68
2022/04/20 03:19:55;;;;;;;7.65;5.60;;;6.60;99.90;;;6.58;70.97;101178.34;4806240;29;20221;-68
2022/04/20 03:22:24;;;;;;;10.60;5.88;;;6.50;99.90;;;6.50;71.03;101178.34;4805565;29;20285;-68
2022/04/20 03:24:53;;;;;;;5.32;4.82;;;6.60;99.90;;;6.53;71.22;101178.84;4805748;29;20216;-68
2022/04/20 03:27:39;;;;;;;9.68;5.88;;;6.60;99.90;;;6.55;71.30;101179.53;4805610;29;20209;-68
2022/04/20 03:30:12;;;;;;;8.20;5.90;;;6.60;99.90;;;6.47;71.34;101182.22;4805729;29;20714;-68
2022/04/20 03:32:42;;;;;;;8.90;5.57;;;6.50;99.90;;;6.62;71.03;101189.59;4805274;29;20250;-68
2022/04/20 03:35:11;;;;;;;6.35;4.70;;;6.60;99.90;;;6.66;71.16;101186.41;4820491;29;20209;-68
2022/04/20 03:37:40;;;;;;;9.25;5.18;;;6.60;99.90;;;6.71;71.05;101181.34;4806468;29;20197;-69
2022/04/20 03:40:11;;;;;;;7.68;5.10;;;6.70;99.90;;;6.66;71.29;101182.88;4804910;29;20237;-69
2022/04/20 03:42:41;;;;;;;7.90;5.60;;;6.60;99.90;;;6.68;71.20;101194.31;4804556;29;20222;-68
2022/04/20 03:45:11;;;;;;;8.35;5.95;;;6.60;99.90;;;6.76;70.82;101196.97;4804781;29;20205;-68
2022/04/20 03:47:40;;;;;;;7.63;6.38;;;6.70;99.90;;;6.84;70.88;101196.97;4806008;29;20215;-68
2022/04/20 03:50:10;;;;;;;8.18;5.60;;;6.80;99.90;;;6.74;71.44;101196.31;4805943;29;20216;-68
2022/04/20 03:52:39;;;;;;;8.05;6.60;;;6.70;99.90;;;6.73;71.55;101194.66;4806918;29;20177;-71
2022/04/20 03:55:11;;;;;;;8.23;6.15;;;6.70;99.90;;;6.84;71.70;101195.13;4805144;29;20194;-68
2022/04/20 03:57:41;;;;;;;13.88;6.85;;;6.80;99.90;;;6.78;71.76;101181.50;4804659;29;20201;-69
2022/04/20 04:00:13;;;;;;;8.80;6.45;;;6.80;99.90;;;6.83;71.64;101195.28;4805672;29;20239;-69
2022/04/20 04:02:51;;;;;;;9.35;6.45;;;6.80;99.90;;;6.88;71.72;101185.69;4804705;29;20447;-68
2022/04/20 04:05:40;;;;;;;7.70;6.30;;;6.80;99.90;;;6.85;71.56;101188.72;4804570;29;20232;-68
2022/04/20 04:08:23;;;;;;;9.85;7.30;;;6.80;99.90;;;6.97;71.48;101191.91;4804248;29;20370;-69
2022/04/20 04:10:52;;;;;;;8.77;6.50;;;6.90;99.90;;;6.92;71.34;101189.72;4804525;29;20236;-71
2022/04/20 04:13:21;;;;;;;7.55;6.32;;;6.90;99.90;;;6.97;71.58;101194.59;4804305;29;20202;-69
2022/04/20 04:15:56;;;;;;;8.05;5.75;;;7.00;99.90;;;6.99;71.49;101192.56;4804676;29;20205;-69
2022/04/20 04:18:28;;;;;;;13.95;6.72;;;7.00;99.90;;;6.93;72.08;101190.56;4804721;29;20206;-69
2022/04/20 04:20:58;;;;;;;9.15;7.72;;;6.90;99.90;;;6.98;72.00;101185.50;4804078;29;20249;-69
2022/04/20 04:23:28;;;;;;;13.25;7.43;;;7.00;99.90;;;7.00;71.96;101180.78;4804197;29;20208;-69
2022/04/20 04:26:17;;;;;;;11.80;7.75;;;7.00;99.90;;;7.06;72.05;101179.28;4804075;29;20212;-68
2022/04/20 04:28:49;;;;;;;7.82;6.75;;;7.00;99.90;;;7.44;70.91;101181.16;4805364;29;20684;-69
2022/04/20 04:31:21;;;;;;;11.18;6.40;;;7.20;99.90;;;7.90;69.11;101167.75;4803946;29;20214;-68
2022/04/20 04:33:53;;;;;;;9.18;6.75;;;7.40;99.90;;;8.40;67.48;101175.34;4804734;29;20205;-69
2022/04/20 04:36:22;;;;;;;9.90;6.82;;;7.70;99.90;;;9.32;64.39;101174.09;4804665;29;20189;-68
2022/04/20 04:38:54;;;;;;;11.38;6.28;;;8.10;99.90;;;9.74;63.61;101174.22;4804511;29;20644;-68
2022/04/20 04:41:27;;;;;;;8.30;6.57;;;8.60;98.80;;;10.20;61.62;101177.47;4804347;29;20683;-68
2022/04/20 04:43:59;;;;;;;7.63;6.75;;;9.00;92.60;;;10.70;59.89;101170.19;4804268;29;20740;-68
2022/04/20 04:49:22;;;;;;;8.18;5.93;;;9.70;1.00;;;11.25;58.07;101172.03;4804227;29;20217;-67
2022/04/20 04:51:53;;;;;;;9.05;6.88;;;9.80;59.10;;;10.21;60.62;101178.31;4804010;29;20205;-68
2022/04/20 04:54:22;;;;;;;6.75;6.05;;;9.70;55.90;;;10.60;59.86;101178.66;4803743;29;20655;-69
2022/04/20 04:56:53;;;;;;;7.78;5.57;;;9.70;57.30;;;10.53;59.83;101168.81;4803725;29;20526;-68
2022/04/20 04:59:22;;;;;;;9.10;6.28;;;9.90;54.60;;;10.57;59.79;101170.94;4803204;29;20233;-69
2022/04/20 05:01:56;;;;;;;8.20;7.38;;;9.90;47.10;;;10.29;60.20;101173.59;4803404;29;20260;-69
2022/04/20 05:04:25;;;;;;;6.47;5.88;;;9.80;1.00;;;9.44;63.03;101186.91;4804188;29;20208;-68
2022/04/20 05:06:59;;;;;;;12.50;7.57;;;9.40;59.90;;;9.27;63.73;101184.63;4804338;29;20242;-68
2022/04/20 05:09:50;;;;;;;11.55;7.25;;;9.00;77.00;;;10.07;61.66;101188.09;4803416;29;20233;-67
2022/04/20 05:12:20;;;;;;;9.98;8.10;;;9.10;82.10;;;10.09;61.52;101191.44;4803869;29;20209;-68
2022/04/20 05:14:50;;;;;;;11.65;8.05;;;9.30;70.90;;;9.24;63.66;101187.69;4805200;29;20242;-68
2022/04/20 05:17:21;;;;;;;10.23;8.32;;;9.10;76.40;;;8.63;65.84;101195.03;4804137;29;20210;-68
2022/04/20 05:19:50;;;;;;;12.18;8.00;;;8.70;90.40;;;8.49;66.52;101180.50;4804241;29;20237;-68
2022/04/20 05:22:25;;;;;;;9.23;7.57;;;8.50;95.90;;;8.07;67.77;101196.31;4804133;29;20209;-68
2022/04/20 05:24:56;;;;;;;8.63;7.30;;;8.20;99.40;;;7.78;69.13;101186.22;4803926;29;20286;-71
2022/04/20 05:27:25;;;;;;;15.35;8.23;;;7.90;99.90;;;7.72;69.47;101181.50;4804981;29;20193;-67
2022/04/20 05:29:59;;;;;;;8.35;7.03;;;7.70;99.90;;;7.85;69.45;101184.47;4803549;29;20266;-68
2022/04/20 05:32:30;;;;;;;10.70;7.47;;;7.80;99.90;;;7.76;69.16;101182.84;4802933;29;20666;-68
2022/04/20 05:35:05;;;;;;;12.63;8.52;;;7.70;99.90;;;7.66;69.96;101191.13;4803081;29;20283;-67
2022/04/20 05:43:14;;;;;;;10.70;7.50;;;7.90;99.90;;;7.96;68.51;101202.09;4802109;29;20261;-68
2022/04/20 05:45:43;;;;;;;9.05;7.93;;;7.90;99.90;;;7.90;68.69;101190.16;4803203;29;20269;-68
2022/04/20 05:48:35;;;;;;;10.30;7.45;;;7.90;99.90;;;7.87;69.10;101195.91;4803007;29;20594;-69
2022/04/20 05:51:07;;;;;;;12.73;9.43;;;7.80;99.90;;;7.82;69.36;101198.31;4803015;29;20711;-69
2022/04/20 05:53:36;;;;;;;10.07;8.00;;;7.80;99.90;;;8.00;68.85;101206.94;4802841;29;20204;-67
2022/04/20 05:56:06;;;;;;;17.42;7.95;;;7.90;99.90;;;8.00;68.51;101201.56;4803036;29;20193;-69
2022/04/20 05:58:40;;;;;;;9.82;8.40;;;7.90;99.90;;;8.07;68.63;101199.84;4802854;29;20602;-71
2022/04/20 06:01:09;;;;;;;12.82;6.88;;;8.00;99.90;;;8.24;67.86;101198.69;4832240;24;20240;-70
2022/04/20 06:03:46;;;;;;;8.05;6.82;;;8.10;99.90;;;7.96;68.54;101210.19;4824605;29;20742;-70
2022/04/20 06:06:28;;;;;;;12.15;7.85;;;7.90;99.90;;;7.92;68.50;101204.31;4823712;29;20559;-68
2022/04/20 06:08:59;;;;;;;10.98;6.90;;;7.90;99.90;;;8.06;68.37;101202.72;4822525;29;20200;-69
2022/04/20 06:11:43;;;;;;;13.45;8.27;;;8.00;99.90;;;8.16;67.66;101201.47;4823041;29;20599;-70
2022/04/20 06:14:16;;;;;;;14.70;10.32;;;8.00;99.90;;;8.20;67.17;101207.31;4823032;29;20209;-70
2022/04/20 06:17:06;;;;;;;9.93;7.10;;;8.00;99.90;;;8.22;66.74;101208.84;4838094;29;20615;-70
2022/04/20 06:19:40;;;;;;;9.65;6.85;;;8.10;99.90;;;8.53;66.27;101214.19;4823433;29;20592;-70
2022/04/20 06:22:27;;;;;;;7.78;6.82;;;8.20;99.90;;;8.58;65.61;101225.28;4825424;29;20335;-70
2022/04/20 06:25:04;;;;;;;13.43;12.13;;;8.40;96.20;;;8.54;65.83;101209.63;4824677;29;20212;-70
2022/04/20 06:27:40;;;;;;;10.02;9.02;;;8.40;96.30;;;9.13;64.23;101216.84;4842753;29;20204;-70
2022/04/20 06:30:15;;;;;;;15.40;13.90;;;8.70;94.10;;;9.18;63.96;101208.19;4826257;29;20220;-69
2022/04/20 06:33:08;;;;;;;8.75;7.80;;;8.90;90.70;;;9.02;63.80;101205.63;4826215;29;20208;-71
2022/04/20 06:36:01;;;;;;;25.80;23.40;;;9.00;81.20;;;8.90;64.17;101199.88;4829897;29;20208;-70
2022/04/20 06:38:54;;;;;;;13.85;12.52;;;8.90;82.60;;;8.95;64.10;101208.25;4830128;29;20261;-70
2022/04/20 06:41:48;;;;;;;8.15;7.18;;;8.80;83.80;;;9.12;63.67;101207.03;4824580;29;20491;-70
2022/04/20 06:44:36;;;;;;;13.43;12.27;;;8.90;83.20;;;9.14;62.74;101202.31;4825485;29;20219;-69
2022/04/20 06:47:33;;;;;;;8.85;7.88;;;9.00;74.20;;;9.39;62.44;101192.03;4823483;29;20213;-70
2022/04/20 06:50:20;;;;;;;25.15;23.00;;;9.10;72.10;;;9.51;61.86;101193.25;4824720;29;20239;-70
2022/04/20 06:58:41;;;;;;;10.07;8.98;;;9.50;59.10;;;9.88;60.45;101184.13;4827400;29;20725;-69
2022/04/20 07:01:31;;;;;;;7.85;6.60;;;9.60;53.10;;;9.79;60.42;101190.69;4826502;29;20240;-70
2022/04/20 07:04:26;;;;;;;7.50;5.63;;;9.60;49.50;;;9.90;59.90;101187.50;4826844;29;20213;-70
2022/04/20 07:07:15;;;;;;;6.85;6.15;;;9.70;48.20;;;9.83;59.83;101191.97;4823362;29;20246;-70
2022/04/20 07:10:02;;;;;;;6.45;5.80;;;9.70;44.30;;;9.89;59.26;101185.81;4824524;29;20213;-70
2022/04/20 07:12:43;;;;;;;8.02;6.00;;;9.70;41.50;;;9.68;60.07;101198.47;4823416;29;20267;-70
2022/04/20 07:15:12;;;;;;;5.97;5.45;;;9.60;41.60;;;9.42;60.89;101193.56;4807702;29;20217;-70
2022/04/20 07:17:41;;;;;;;8.80;6.70;;;9.40;44.40;;;9.72;60.40;101189.78;4823510;29;20239;-70
2022/04/20 07:20:31;;;;;;;8.50;5.80;;;9.50;46.20;;;9.93;59.62;101194.38;4824215;29;20221;-69
2022/04/20 07:23:16;;;;;;;6.70;5.85;;;9.70;43.40;;;9.84;59.78;101193.66;4824256;29;20208;-69
2022/04/20 07:25:56;;;;;;;6.47;5.22;;;9.70;41.10;;;9.80;59.22;101196.94;4823767;29;20220;-68
2022/04/20 07:28:45;;;;;;;12.75;6.70;;;9.80;37.30;;;9.67;59.74;101202.19;4824492;29;20208;-69
2022/04/20 07:31:38;;;;;;;6.03;5.43;;;9.70;37.60;;;9.55;60.27;101199.97;4825702;29;20691;-70
2022/04/20 07:34:27;;;;;;;6.55;5.70;;;9.50;40.00;;;9.64;60.45;101199.84;4824922;29;20265;-69
2022/04/20 07:37:09;;;;;;;15.30;8.05;;;9.60;42.00;;;9.51;60.89;101203.22;4824890;29;20236;-68
2022/04/20 07:40:16;;;;;;;13.50;6.70;;;9.50;43.80;;;9.77;60.74;101203.56;4824905;29;20264;-68
2022/04/20 07:43:07;;;;;;;7.65;5.85;;;9.50;46.20;;;9.95;60.25;101201.28;4823338;29;20759;-69
2022/04/20 07:45:39;;;;;;;11.50;9.38;;;9.70;45.70;;;10.25;58.90;101191.25;4824726;29;20204;-68
2022/04/20 07:48:31;;;;;;;6.85;6.25;;;9.90;40.80;;;10.20;58.60;101198.25;4822289;29;20208;-69
2022/04/20 07:51:17;;;;;;;7.18;5.30;;;9.90;36.60;;;10.13;58.79;101198.16;4822793;29;20248;-67
2022/04/20 07:54:15;;;;;;;6.28;5.40;;;9.90;35.60;;;10.70;57.75;101199.97;4821847;29;20220;-67
2022/04/20 07:57:00;;;;;;;5.97;5.40;;;10.20;34.00;;;11.10;55.18;101196.53;4823921;29;20212;-70
2022/04/20 07:59:50;;;;;;;6.00;3.97;;;10.60;27.20;;;10.95;54.48;101192.25;4823067;29;20492;-67
2022/04/20 08:02:26;;;;;;;5.57;4.17;;;10.70;1.00;;;11.36;53.31;101190.44;4822199;29;20573;-69
2022/04/20 08:05:22;;;;;;;6.60;4.60;;;10.90;1.00;;;11.34;52.62;101187.91;4822468;29;20449;-68
2022/04/20 08:07:52;;;;;;;9.10;4.30;;;11.10;1.00;;;11.50;52.41;101180.50;4822553;29;20473;-69
2022/04/20 08:10:22;;;;;;;5.57;4.57;;;11.30;1.00;;;11.69;52.44;101186.00;4822115;29;20458;-70
2022/04/20 08:12:51;;;;;;;9.30;8.40;;;11.40;1.00;;;11.52;52.27;101184.66;4822145;29;20450;-69
2022/04/20 08:15:29;;;;;;;6.47;5.43;;;11.40;1.00;;;11.92;50.61;101184.88;4822614;29;20456;-69
2022/04/20 08:18:00;;;;;;;6.80;3.63;;;11.60;1.00;;;11.76;48.82;101183.38;4830967;29;20450;-69
2022/04/20 08:20:35;;;;;;;6.90;6.30;;;11.60;1.00;;;11.70;47.59;101193.13;4823565;29;21116;-70
2022/04/20 08:23:05;;;;;;;5.00;3.80;;;11.60;1.00;;;11.54;47.99;101193.44;4822095;29;20941;-68
2022/04/20 08:25:34;;;;;;;8.70;6.60;;;11.40;1.00;;;11.65;47.02;101189.34;4823200;29;20525;-68
2022/04/20 08:28:04;;;;;;;5.13;4.40;;;11.50;1.00;;;11.47;47.51;101187.19;4823073;29;20951;-70
2022/04/20 08:30:35;;;;;;;22.13;20.45;;;11.40;1.00;;;11.56;47.16;101190.53;4822833;29;20477;-68
2022/04/20 08:33:07;;;;;;;5.10;4.57;;;11.50;1.00;;;11.70;47.32;101186.84;4826615;29;20205;-68
2022/04/20 08:35:39;;;;;;;5.70;3.27;;;11.50;1.00;;;11.70;47.46;101193.13;4827950;29;20413;-68
2022/04/20 08:38:09;;;;;;;4.47;3.43;;;11.50;1.00;;;11.85;46.93;101179.44;4825763;29;20544;-68
2022/04/20 08:40:38;;;;;;;5.87;3.60;;;11.70;1.00;;;11.83;47.13;101177.94;4840350;29;20504;-71
2022/04/20 08:43:07;;;;;;;4.20;3.20;;;11.60;1.00;;;12.01;46.39;101178.22;4826913;29;20440;-69
2022/04/20 08:45:40;;;;;;;3.50;2.90;;;11.80;1.00;;;11.69;46.55;101191.44;4823482;29;20442;-69
2022/04/20 08:48:11;;;;;;;6.50;3.07;;;11.70;1.00;;;11.59;47.12;101180.13;4823258;29;20446;-68
2022/04/20 08:50:43;;;;;;;4.13;3.73;;;11.50;1.00;;;11.49;47.33;101179.66;4822174;29;20477;-67
2022/04/20 08:53:16;;;;;;;5.83;3.30;;;11.40;1.00;;;11.32;47.95;101187.31;4819699;29;20898;-69
2022/04/20 08:55:47;;;;;;;3.80;3.30;;;11.20;1.00;;;11.42;47.96;101184.22;4823737;29;20487;-68
2022/04/20 08:58:16;;;;;;;3.67;3.37;;;11.30;1.00;;;11.24;48.53;101186.59;4824803;29;20528;-67
2022/04/20 09:00:46;;;;;;;4.57;3.17;;;11.20;1.00;;;11.18;49.19;101196.34;4824906;29;20444;-68
2022/04/20 09:03:18;;;;;;;4.87;2.90;;;11.10;1.00;;;11.22;49.69;101191.41;4825397;29;20449;-68
2022/04/20 09:05:50;;;;;;;7.97;3.13;;;11.10;1.00;;;11.18;50.40;101188.22;4828563;29;20446;-69
2022/04/20 09:08:19;;;;;;;4.93;3.80;;;11.10;1.00;;;11.37;51.03;101192.13;4826285;29;20484;-68
2022/04/20 09:10:49;;;;;;;5.00;3.30;;;11.10;1.00;;;11.27;51.51;101189.78;4823707;29;20435;-69
2022/04/20 09:13:33;;;;;;;8.03;4.40;;;11.10;1.00;;;11.38;51.77;101191.06;4823734;29;20426;-69
2022/04/20 09:16:08;;;;;;;5.53;5.07;;;11.20;1.00;;;11.29;52.83;101201.22;4823478;29;20477;-68
2022/04/20 09:18:38;;;;;;;5.40;3.13;;;11.20;1.00;;;11.19;53.41;101200.75;4822746;29;20526;-69
2022/04/20 09:21:09;;;;;;;5.27;4.77;;;11.20;1.00;;;11.29;53.82;101197.69;4823226;29;20481;-68
2022/04/20 09:23:38;;;;;;;4.87;4.37;;;11.10;1.00;;;11.17;54.31;101207.41;4823243;29;20423;-68
2022/04/20 09:26:12;;;;;;;6.20;4.50;;;11.00;1.00;;;11.12;54.52;101202.59;4823690;29;20442;-67
2022/04/20 09:28:44;;;;;;;8.97;8.07;;;11.10;1.00;;;10.88;56.48;101198.47;4823145;29;20422;-69
2022/04/20 09:31:15;;;;;;;12.50;11.23;;;10.90;1.00;;;10.85;56.61;101195.28;4823085;29;20466;-68
2022/04/20 09:33:46;;;;;;;42.50;38.27;;;10.80;1.00;;;10.69;57.34;101199.16;4823598;29;20438;-70
2022/04/20 09:36:43;;;;;;;8.87;5.70;;;10.70;1.00;;;10.79;57.01;101196.94;4823910;29;20569;-69
2022/04/20 09:39:15;;;;;;;10.60;7.45;;;10.60;1.00;;;11.04;57.26;101186.47;4839463;29;20485;-70
2022/04/20 09:41:58;;;;;;;7.77;6.30;;;10.80;1.00;;;11.47;55.27;101181.75;4823180;29;20349;-69
2022/04/20 09:44:29;;;;;;;8.80;7.90;;;11.00;1.00;;;11.56;56.05;101183.25;4822804;29;20521;-70
2022/04/20 09:50:00;;;;;;;7.47;3.93;;;11.40;1.00;;;11.83;53.70;101170.66;4822030;29;20527;-69
2022/04/20 09:52:37;;;;;;;10.40;7.37;;;11.50;1.00;;;11.70;54.73;101182.28;4822754;29;20944;-69
2022/04/20 09:55:09;;;;;;;20.43;15.50;;;11.30;1.00;;;12.00;53.62;101176.56;4822196;29;20465;-68
2022/04/20 09:57:38;;;;;;;8.60;5.03;;;11.60;1.00;;;12.30;53.80;101177.03;4822440;29;20435;-68
2022/04/20 10:00:11;;;;;;;13.37;11.00;;;11.70;1.00;;;12.45;53.07;101175.78;4822337;29;20509;-69
2022/04/20 10:02:52;;;;;;;6.13;4.27;;;11.80;1.00;;;12.60;52.32;101184.56;4822755;29;20445;-69
2022/04/20 10:05:24;;;;;;;9.90;7.67;;;11.90;1.00;;;13.11;51.68;101186.69;4822397;29;20433;-69
2022/04/20 10:07:58;;;;;;;9.77;8.30;;;12.30;1.00;;;13.24;51.24;101185.81;4822485;29;20447;-69
2022/04/20 10:10:29;;;;;;;11.90;9.70;;;12.50;1.00;;;13.35;50.88;101182.44;4822839;29;20433;-69
2022/04/20 10:12:59;;;;;;;5.30;4.80;;;12.70;1.00;;;13.44;51.15;101179.28;4821805;29;20491;-68
2022/04/20 10:18:21;;;;;;;6.20;3.90;;;12.50;1.00;;;12.76;53.19;101166.19;4821378;29;20477;-70
2022/04/20 10:20:56;;;;;;;4.57;3.90;;;12.30;1.00;;;13.15;54.38;101158.03;4821710;29;20909;-68
2022/04/20 10:23:29;;;;;;;4.73;4.03;;;12.50;1.00;;;13.59;52.34;101159.16;4822027;29;20466;-68
2022/04/20 10:26:00;;;;;;;7.80;4.17;;;13.10;1.00;;;13.34;54.11;101137.28;4821830;29;20926;-68
2022/04/20 10:28:40;;;;;;;5.10;3.70;;;12.90;1.00;;;13.34;54.60;101137.28;4821901;29;20442;-69
2022/04/20 10:31:23;;;;;;;4.73;4.00;;;12.80;1.00;;;13.25;55.55;101147.56;4824449;29;20469;-68
2022/04/20 10:34:02;;;;;;;5.33;3.83;;;12.80;1.00;;;13.04;55.42;101139.63;4824109;29;20424;-68
2022/04/20 10:36:40;;;;;;;4.80;4.40;;;12.60;1.00;;;12.99;55.36;101133.97;4824365;29;20540;-69
2022/04/20 10:39:22;;;;;;;6.03;3.80;;;12.80;1.00;;;12.36;56.38;101133.63;4824531;29;20439;-68
2022/04/20 10:42:24;;;;;;;6.83;4.43;;;12.40;1.00;;;11.76;56.73;101131.84;4824793;29;20474;-70
2022/04/20 10:45:01;;;;;;;5.20;4.70;;;11.60;1.00;;;11.80;57.17;101137.69;4825360;29;20931;-68
2022/04/20 10:47:33;;;;;;;5.53;4.80;;;11.50;1.00;;;11.97;57.39;101128.13;4825459;29;20553;-68
2022/04/20 10:50:19;;;;;;;4.70;4.20;;;11.60;1.00;;;12.13;56.63;101114.19;4824985;29;20444;-67
2022/04/20 10:52:52;;;;;;;5.37;3.87;;;11.80;1.00;;;12.10;55.96;101111.91;4824635;29;20513;-68
2022/04/20 10:55:53;;;;;;;4.10;3.70;;;11.90;1.00;;;12.25;56.78;101120.66;4823741;29;20450;-68
2022/04/20 10:58:23;;;;;;;7.57;3.47;;;11.70;1.00;;;12.76;54.57;101110.00;4825403;29;20430;-68
2022/04/20 11:01:12;;;;;;;4.50;3.80;;;12.20;1.00;;;13.22;53.57;101111.78;4824812;29;20477;-69
2022/04/20 11:04:10;;;;;;;9.40;3.97;;;12.70;1.00;;;13.49;53.17;101103.34;4825146;29;20517;-69
2022/04/20 11:07:26;;;;;;;8.53;7.10;;;12.90;1.00;;;13.13;53.78;101110.38;4825555;29;20433;-68
2022/04/20 11:10:07;;;;;;;6.60;5.97;;;12.90;1.00;;;13.06;54.39;101113.91;4811656;29;21003;-68
2022/04/20 11:19:14;;;;;;;3.73;3.33;;;12.70;1.00;;;13.31;52.50;101095.03;4838861;29;20457;-69
2022/04/20 11:22:08;;;;;;;5.10;3.80;;;13.00;1.00;;;13.48;52.82;101096.22;4819195;29;20454;-68
2022/04/20 11:24:44;;;;;;;5.77;3.90;;;13.10;1.00;;;13.57;52.66;101098.69;4824426;29;20443;-68
2022/04/20 11:27:14;;;;;;;4.97;4.23;;;13.10;1.00;;;13.44;52.67;101100.44;4824584;29;20904;-68